Time;durP1;ratioP1;P1;durP2;ratioP2;P2;SDS_P1;SDS_P2;PMS_P1;PMS_P2;Temp;Humidity;BMP_temperature;BMP_pressure;BME280_temperature;BME280_humidity;BME280_pressure;Samples;Min_cycle;Max_cycle;Signal;HPM_P1;HPM_P2
2022/12/05 00:07:45;;;;;;;63.20;27.30;;;;;;;0.16;97.36;99062.85;419808;1304;99278;-39
2022/12/05 00:17:52;;;;;;;54.90;27.60;;;;;;;0.11;97.44;99057.59;419711;1294;112098;-39
2022/12/05 00:27:59;;;;;;;43.80;22.40;;;;;;;0.14;97.50;99050.58;419719;1303;106900;-38
2022/12/05 00:38:06;;;;;;;47.70;26.60;;;;;;;0.12;97.48;99044.63;419805;1294;98653;-38
2022/12/05 00:48:13;;;;;;;36.90;20.10;;;;;;;0.15;97.50;99030.66;419782;1304;107917;-39
2022/12/05 00:58:20;;;;;;;52.90;24.70;;;;;;;0.06;97.45;99026.58;419678;1302;98059;-39
2022/12/05 01:08:27;;;;;;;54.00;24.00;;;;;;;-0.05;97.58;99036.80;419779;1303;112994;-39
2022/12/05 01:18:34;;;;;;;55.30;27.10;;;;;;;-0.06;97.79;99030.82;419576;1294;108047;-40
2022/12/05 01:28:43;;;;;;;37.90;21.10;;;;;;;-0.00;97.51;99031.67;419677;1295;98059;-39
2022/12/05 01:38:50;;;;;;;41.70;21.90;;;;;;;0.04;97.81;99020.21;419857;1288;107829;-39
2022/12/05 01:48:55;;;;;;;40.70;20.90;;;;;;;0.04;97.79;99006.13;419587;1294;98867;-39
2022/12/05 01:59:05;;;;;;;42.70;20.80;;;;;;;0.05;97.85;99006.44;419709;1294;111759;-39
2022/12/05 02:09:12;;;;;;;35.80;19.90;;;;;;;0.07;97.83;99008.42;419766;1294;108361;-38
2022/12/05 02:20:02;;;;;;;35.90;20.90;;;;;;;0.08;97.85;98995.70;420415;1273;98352;-38
2022/12/05 02:30:12;;;;;;;38.10;20.50;;;;;;;0.08;97.88;98992.77;419178;1293;108140;-39
2022/12/05 02:40:19;;;;;;;42.20;20.00;;;;;;;0.09;97.97;99002.50;419505;1302;98040;-39
2022/12/05 02:50:37;;;;;;;46.20;22.90;;;;;;;0.14;97.87;99008.05;419485;1302;112499;-39
2022/12/05 03:00:48;;;;;;;71.70;31.50;;;;;;;0.08;98.04;99007.17;419440;1304;107584;-39
2022/12/05 03:10:57;;;;;;;45.70;23.10;;;;;;;0.05;98.06;99006.17;419478;1294;98889;-38
2022/12/05 03:21:02;;;;;;;40.90;21.20;;;;;;;0.10;97.98;98996.52;419414;1304;108203;-38
2022/12/05 03:31:07;;;;;;;40.90;23.10;;;;;;;0.13;97.93;99010.22;419448;1288;99314;-39
2022/12/05 03:41:14;;;;;;;45.20;22.20;;;;;;;0.22;98.22;99014.03;419367;1294;110936;-37
2022/12/05 03:51:25;;;;;;;47.40;22.90;;;;;;;0.27;97.88;99008.29;419448;1293;108290;-39
2022/12/05 04:01:34;;;;;;;46.40;24.60;;;;;;;0.28;98.05;99003.71;419680;1305;98158;-39
2022/12/05 04:11:39;;;;;;;;;;;;;;;0.18;98.05;98997.95;419820;1300;111335;-37
2022/12/05 04:21:52;;;;;;;43.90;22.60;;;;;;;0.13;98.01;98986.29;419675;1304;107638;-38
2022/12/05 04:32:06;;;;;;;42.50;22.20;;;;;;;0.19;97.91;98979.98;419763;1295;99244;-39
2022/12/05 04:42:18;;;;;;;39.80;20.60;;;;;;;0.22;98.01;98974.83;419762;1302;107806;-38
2022/12/05 04:52:28;;;;;;;37.00;20.00;;;;;;;0.25;97.98;98970.05;419680;1305;99289;-39
2022/12/05 05:02:37;;;;;;;51.50;23.30;;;;;;;0.17;98.22;98958.13;419750;1302;111727;-39
2022/12/05 05:12:45;;;;;;;33.70;18.20;;;;;;;0.12;98.26;98944.69;419645;1301;109642;-40
2022/12/05 05:22:53;;;;;;;38.70;18.20;;;;;;;0.18;98.09;98958.10;419721;1295;98944;-39
2022/12/05 05:33:00;;;;;;;31.30;18.00;;;;;;;0.18;98.02;98955.23;419608;1294;111456;-39
2022/12/05 05:43:08;;;;;;;31.00;16.40;;;;;;;0.20;98.11;98954.40;419600;1287;107666;-39
2022/12/05 05:53:15;;;;;;;35.50;18.50;;;;;;;0.23;98.20;98956.17;419670;1297;98336;-38
2022/12/05 06:03:22;;;;;;;46.00;24.10;;;;;;;0.18;98.35;98949.07;419511;1293;108512;-40
2022/12/05 06:13:30;;;;;;;44.90;24.20;;;;;;;0.12;98.32;98957.45;419452;1294;98059;-39
2022/12/05 06:23:39;;;;;;;42.00;20.70;;;;;;;0.17;98.11;98958.39;419526;1303;112491;-38
2022/12/05 06:33:45;;;;;;;33.30;17.80;;;;;;;0.20;98.35;98958.50;419454;1304;108796;-39
2022/12/05 06:43:52;;;;;;;32.80;18.00;;;;;;;0.25;98.26;98958.56;419578;1302;98651;-38
2022/12/05 06:54:03;;;;;;;39.40;20.60;;;;;;;0.33;98.27;98961.98;419446;1304;107745;-39
2022/12/05 07:14:21;;;;;;;43.30;24.20;;;;;;;0.30;98.42;98958.01;419542;1304;112535;-38
2022/12/05 07:24:47;;;;;;;36.90;18.70;;;;;;;0.36;98.38;98958.48;419567;1301;107890;-40
2022/12/05 07:34:55;;;;;;;38.20;20.90;;;;;;;0.43;98.55;98963.48;419643;1302;99197;-39
2022/12/05 07:45:02;;;;;;;27.60;17.50;;;;;;;0.51;98.56;98968.85;419729;1296;108152;-38
2022/12/05 07:55:10;;;;;;;53.00;22.80;;;;;;;0.58;98.57;98970.92;419680;1300;99255;-38
2022/12/05 08:05:16;;;;;;;42.90;21.20;;;;;;;0.63;98.61;98967.84;419772;1293;111497;-39
2022/12/05 08:15:23;;;;;;;35.40;20.60;;;;;;;0.72;98.45;98964.11;419837;1302;108256;-39
2022/12/05 08:35:38;;;;;;;47.40;28.90;;;;;;;1.03;98.67;98967.61;419736;1300;107713;-39
2022/12/05 08:45:49;;;;;;;71.80;33.00;;;;;;;1.24;98.79;98971.00;419911;1302;98529;-39
2022/12/05 08:55:59;;;;;;;63.70;29.30;;;;;;;1.27;98.58;98974.23;419843;1301;111232;-39
2022/12/05 09:06:07;;;;;;;55.00;30.10;;;;;;;1.38;98.47;98977.64;419830;1300;108196;-39
2022/12/05 09:16:17;;;;;;;47.40;26.70;;;;;;;1.57;98.47;98982.73;419753;1302;99221;-40
2022/12/05 09:26:26;;;;;;;51.50;30.90;;;;;;;1.83;98.53;98972.28;419709;1296;108656;-40
2022/12/05 09:36:33;;;;;;;72.70;37.00;;;;;;;1.96;98.66;98962.81;419710;1299;119676;-39
2022/12/05 09:46:46;;;;;;;48.00;27.50;;;;;;;1.93;98.40;98949.75;419716;1302;111988;-39
2022/12/05 09:56:54;;;;;;;47.70;28.80;;;;;;;2.07;98.18;98940.17;419676;1301;105735;-40
2022/12/05 10:06:59;;;;;;;55.00;27.30;;;;;;;2.22;98.24;98927.23;419747;1294;98047;-39
2022/12/05 10:17:04;;;;;;;57.20;28.00;;;;;;;2.21;98.20;98921.98;419765;1301;106512;-41
2022/12/05 10:27:15;;;;;;;44.30;24.40;;;;;;;2.26;98.03;98912.30;419762;1300;98328;-40
2022/12/05 10:37:24;;;;;;;48.20;25.70;;;;;;;2.38;98.08;98913.23;419718;1293;111219;-43
2022/12/05 10:47:32;;;;;;;55.60;29.20;;;;;;;2.42;98.03;98914.20;419659;1301;106460;-40
2022/12/05 10:57:39;;;;;;;62.20;32.20;;;;;;;2.37;98.07;98909.55;419720;1304;99246;-40
2022/12/05 11:07:47;;;;;;;49.40;26.40;;;;;;;2.41;97.96;98894.14;419799;1295;111543;-40
2022/12/05 11:17:56;;;;;;;37.60;23.60;;;;;;;2.45;97.79;98888.21;419483;1288;337303;-39
2022/12/05 11:28:22;;;;;;;42.50;25.10;;;;;;;2.60;98.06;98872.98;419598;1303;99227;-38
2022/12/05 11:48:47;;;;;;;61.50;33.10;;;;;;;2.82;98.19;98879.20;419776;1294;99289;-39
2022/12/05 11:58:56;;;;;;;40.10;25.50;;;;;;;2.94;98.10;98872.85;419715;1303;110880;-40
2022/12/05 12:09:07;;;;;;;38.60;24.40;;;;;;;3.07;97.87;98872.23;419654;1304;107878;-39
2022/12/05 12:19:16;;;;;;;46.60;28.40;;;;;;;3.23;97.93;98876.83;419801;1302;98081;-39
2022/12/05 12:29:25;;;;;;;57.70;33.90;;;;;;;3.29;98.03;98873.14;419760;1301;108336;-39
2022/12/05 12:39:33;;;;;;;57.80;33.20;;;;;;;3.29;97.88;98866.48;419881;1302;99354;-39
2022/12/05 12:49:43;;;;;;;46.40;29.20;;;;;;;3.34;97.68;98854.95;419726;1302;111478;-39
2022/12/05 12:59:52;;;;;;;48.80;29.70;;;;;;;3.44;97.47;98848.45;419762;1294;107656;-40
2022/12/05 13:10:00;;;;;;;51.10;31.70;;;;;;;3.52;97.58;98855.40;419782;1301;98111;-40
2022/12/05 13:20:14;;;;;;;62.70;35.00;;;;;;;3.61;97.89;98851.08;419839;1302;107189;-40
2022/12/05 13:30:19;;;;;;;73.10;39.60;;;;;;;3.56;97.63;98853.98;419812;1294;99229;-38
2022/12/05 13:50:51;;;;;;;48.10;29.90;;;;;;;3.55;97.22;98862.25;419638;1293;107951;-37
2022/12/05 14:11:36;;;;;;;73.50;38.90;;;;;;;3.54;97.40;98867.26;419773;1302;107138;-37
2022/12/05 14:21:54;;;;;;;68.70;38.30;;;;;;;3.49;97.30;98863.41;419729;1302;97990;-37
2022/12/05 14:32:02;;;;;;;57.60;36.00;;;;;;;3.48;97.05;98859.40;419658;1302;110542;-39
2022/12/05 14:42:26;;;;;;;50.80;31.40;;;;;;;3.56;97.00;98858.17;419875;1293;107856;-38
2022/12/05 14:52:34;;;;;;;86.90;44.30;;;;;;;3.61;96.97;98853.38;419742;1303;98442;-39
2022/12/05 15:02:47;;;;;;;99.70;55.10;;;;;;;3.56;97.20;98849.20;419668;1302;108921;-42
2022/12/05 15:12:57;;;;;;;91.20;51.30;;;;;;;3.39;96.91;98850.06;419873;1295;98097;-41
2022/12/05 15:23:28;;;;;;;74.50;44.10;;;;;;;3.30;96.76;98852.29;419721;1302;112146;-39
2022/12/05 15:33:35;;;;;;;72.50;41.00;;;;;;;3.36;96.81;98850.67;419750;1294;107725;-39
2022/12/05 15:43:44;;;;;;;79.50;42.40;;;;;;;3.44;96.91;98849.75;419747;1303;99235;-39
2022/12/05 15:53:52;;;;;;;103.80;57.90;;;;;;;3.47;97.12;98856.86;419691;1296;109367;-39
2022/12/05 16:04:02;;;;;;;106.10;57.80;;;;;;;3.39;97.03;98856.43;419863;1302;98949;-40
2022/12/05 16:14:12;;;;;;;106.30;57.60;;;;;;;3.25;96.91;98849.37;419941;1295;110379;-38
2022/12/05 16:24:41;;;;;;;93.50;58.60;;;;;;;3.23;96.83;98848.60;419756;1287;108675;-39
2022/12/05 16:34:49;;;;;;;90.90;54.70;;;;;;;3.30;96.83;98847.95;419821;1302;98034;-41
2022/12/05 16:55:03;;;;;;;115.50;63.70;;;;;;;3.51;96.87;98840.55;419943;1301;107566;-39
2022/12/05 17:15:19;;;;;;;145.40;75.80;;;;;;;3.44;97.06;98837.72;419932;1301;107741;-39
2022/12/05 17:25:27;;;;;;;102.70;63.30;;;;;;;3.49;96.95;98835.38;419886;1301;98841;-39
2022/12/05 17:35:32;;;;;;;104.40;63.50;;;;;;;3.61;96.94;98835.80;419825;1301;111177;-40
2022/12/05 17:45:39;;;;;;;103.50;61.50;;;;;;;3.71;96.94;98834.08;419860;1301;109654;-40
2022/12/05 17:55:47;;;;;;;145.20;74.80;;;;;;;3.77;96.96;98838.94;420035;1294;99345;-39
2022/12/05 18:05:54;;;;;;;146.90;76.40;;;;;;;3.76;97.11;98836.83;420043;1301;107793;-39
2022/12/05 18:16:02;;;;;;;113.80;65.30;;;;;;;3.71;97.11;98841.91;419939;1299;98033;-39
2022/12/05 18:26:10;;;;;;;101.00;65.30;;;;;;;3.78;96.82;98839.16;419960;1297;111929;-40
2022/12/05 18:36:20;;;;;;;113.00;65.50;;;;;;;3.86;96.89;98833.88;419902;1301;106644;-42
2022/12/05 18:46:24;;;;;;;109.80;64.70;;;;;;;3.93;96.86;98837.64;420005;1301;99184;-41
2022/12/05 19:16:50;;;;;;;130.10;82.40;;;;;;;3.87;96.85;98828.66;419907;1297;112237;-40
2022/12/05 19:27:06;;;;;;;134.30;82.30;;;;;;;3.93;96.81;98833.00;419962;1301;107966;-40
2022/12/05 19:37:13;;;;;;;123.90;76.80;;;;;;;4.06;97.11;98840.38;419806;1297;98059;-39
2022/12/05 19:47:20;;;;;;;195.80;102.50;;;;;;;4.10;97.13;98835.31;419999;1301;108667;-40
2022/12/05 19:57:27;;;;;;;201.50;106.60;;;;;;;3.94;97.01;98832.86;420068;1302;98283;-40
2022/12/05 20:07:37;;;;;;;158.70;86.00;;;;;;;3.86;96.92;98826.80;419865;1295;110963;-40
2022/12/05 20:17:46;;;;;;;140.50;78.00;;;;;;;3.85;96.99;98822.97;420032;1294;108632;-39
2022/12/05 20:27:59;;;;;;;126.50;74.90;;;;;;;3.85;97.02;98818.39;419914;1294;98851;-39
2022/12/05 20:38:06;;;;;;;117.60;68.80;;;;;;;3.88;97.13;98812.98;419978;1301;107598;-38
2022/12/05 20:48:13;;;;;;;127.10;68.20;;;;;;;3.90;97.12;98806.96;420046;1287;98912;-39
2022/12/05 20:58:21;;;;;;;130.90;69.10;;;;;;;3.93;97.31;98794.84;419854;1294;112960;-38
2022/12/05 21:08:28;;;;;;;129.00;76.90;;;;;;;3.93;97.35;98793.71;419861;1294;107224;-39
2022/12/05 21:18:36;;;;;;;128.20;74.10;;;;;;;3.93;97.41;98793.91;419891;1302;98964;-39
2022/12/05 21:28:44;;;;;;;117.70;69.50;;;;;;;3.92;97.52;98787.36;419800;1301;108131;-39
2022/12/05 21:38:52;;;;;;;106.30;65.30;;;;;;;3.95;97.61;98783.96;419846;1294;99911;-39
2022/12/05 21:49:02;;;;;;;99.90;57.40;;;;;;;3.95;97.57;98784.40;420003;1301;111986;-38
2022/12/05 21:59:09;;;;;;;89.70;53.70;;;;;;;3.96;97.64;98779.09;419853;1301;108455;-39
2022/12/05 22:09:15;;;;;;;81.50;47.40;;;;;;;4.03;97.73;98783.86;419872;1301;98719;-39
2022/12/05 22:19:22;;;;;;;94.80;52.00;;;;;;;4.03;97.88;98780.22;419877;1301;108209;-39
2022/12/05 22:29:29;;;;;;;90.30;48.90;;;;;;;3.98;97.98;98768.17;419778;1301;99115;-39
2022/12/05 22:39:37;;;;;;;69.10;41.30;;;;;;;3.99;97.72;98755.38;419878;1301;112173;-40
2022/12/05 22:49:44;;;;;;;63.50;38.10;;;;;;;4.06;97.76;98750.05;419963;1294;107552;-40
2022/12/05 22:59:51;;;;;;;68.10;39.30;;;;;;;4.21;98.00;98754.81;419911;1301;98725;-39
2022/12/05 23:09:58;;;;;;;89.10;46.60;;;;;;;4.29;97.91;98755.52;419726;1299;409369;-42
2022/12/05 23:20:06;;;;;;;98.30;50.70;;;;;;;4.21;97.96;98741.89;419912;1301;107314;-38
2022/12/05 23:30:15;;;;;;;92.90;49.20;;;;;;;4.14;97.97;98724.08;420109;1301;120678;-40
2022/12/05 23:40:23;;;;;;;72.60;41.60;;;;;;;4.08;97.80;98714.19;419907;1301;109940;-39
2022/12/05 23:50:30;;;;;;;71.00;38.80;;;;;;;4.12;97.88;98711.61;419896;1301;98408;-40
